Terminal Aerodrome Forecast
Issued by NWS

Home | Current Version | Previous Version | Graphics & Text | Print | Product List | Glossary On
Versions: 1 2 3 4 5 6 7 8 9 10 11 12 13 14 15 16 17 18 19 20
000
FTUS43 KFGF 251700
TAFBJI
TAF
KBJI 251725Z 2518/2618 25015G25KT P6SM BKN023
     FM252000 26015G25KT P6SM BKN027
     FM260100 27012KT P6SM BKN030
     FM261200 28007KT P6SM SCT030=

USA.gov is the U.S. government's official web portal to all federal, state and local government web resources and services.